Time;durP1;ratioP1;P1;durP2;ratioP2;P2;SDS_P1;SDS_P2;PMS_P1;PMS_P2;Temp;Humidity;BMP_temperature;BMP_pressure;BME280_temperature;BME280_humidity;BME280_pressure;Samples;Min_cycle;Max_cycle;Signal;HPM_P1;HPM_P2
2022/01/05 00:01:30;;;;;;;14.40;3.10;;;3.80;99.90;;;;;;5017537;28;20042;-71
2022/01/05 00:03:55;;;;;;;14.98;3.50;;;3.80;99.90;;;;;;5014901;28;20479;-71
2022/01/05 00:06:21;;;;;;;12.70;3.03;;;3.80;99.90;;;;;;5003456;28;20042;-71
2022/01/05 00:08:46;;;;;;;10.38;2.65;;;3.70;99.90;;;;;;5009150;28;20128;-71
2022/01/05 00:11:12;;;;;;;12.05;2.97;;;3.80;99.90;;;;;;5007412;28;20065;-72
2022/01/05 00:13:38;;;;;;;12.60;2.38;;;3.70;99.90;;;;;;5009576;28;20046;-71
2022/01/05 00:16:04;;;;;;;15.40;3.10;;;3.70;99.90;;;;;;5005587;28;20050;-71
2022/01/05 00:18:31;;;;;;;12.38;2.85;;;3.70;99.90;;;;;;5007309;28;20081;-71
2022/01/05 00:20:57;;;;;;;14.30;2.70;;;3.60;99.90;;;;;;5023123;28;20088;-71
2022/01/05 00:23:23;;;;;;;12.98;3.20;;;3.60;99.90;;;;;;5015918;28;20832;-71
2022/01/05 00:25:48;;;;;;;11.15;2.63;;;3.60;99.90;;;;;;5007327;28;20568;-71
2022/01/05 00:28:14;;;;;;;10.82;2.92;;;3.50;99.90;;;;;;5007135;28;20543;-71
2022/01/05 00:30:40;;;;;;;11.10;2.60;;;3.50;99.90;;;;;;5008312;28;20038;-72
2022/01/05 00:33:06;;;;;;;13.85;2.78;;;3.50;99.90;;;;;;5009961;28;20711;-72
2022/01/05 00:35:32;;;;;;;14.63;2.55;;;3.50;99.90;;;;;;5006360;28;20595;-72
2022/01/05 00:37:57;;;;;;;12.73;2.80;;;3.50;99.90;;;;;;5007710;28;20141;-71
2022/01/05 00:40:23;;;;;;;11.52;2.30;;;3.50;99.90;;;;;;5009187;28;20125;-72
2022/01/05 00:42:49;;;;;;;14.68;3.45;;;3.50;99.90;;;;;;5003096;28;20042;-71
2022/01/05 00:45:14;;;;;;;13.40;2.40;;;3.50;99.90;;;;;;5005476;28;20428;-71
2022/01/05 00:47:40;;;;;;;15.63;2.90;;;3.50;99.90;;;;;;5004928;28;20814;-72
2022/01/05 00:50:06;;;;;;;10.30;2.08;;;3.40;99.90;;;;;;5009695;28;20081;-72
2022/01/05 00:52:32;;;;;;;11.82;2.05;;;3.40;99.90;;;;;;5028044;28;20769;-70
2022/01/05 00:54:57;;;;;;;12.80;2.28;;;3.40;99.90;;;;;;5014196;28;20033;-72
2022/01/05 00:57:23;;;;;;;11.25;2.47;;;3.50;99.90;;;;;;5005826;28;20128;-71
2022/01/05 00:59:48;;;;;;;11.02;2.35;;;3.50;99.90;;;;;;5005701;28;20038;-71
2022/01/05 01:02:14;;;;;;;9.98;2.30;;;3.50;99.90;;;;;;5003282;28;20050;-71
2022/01/05 01:04:40;;;;;;;11.32;2.88;;;3.50;99.90;;;;;;5005327;28;20469;-71
2022/01/05 01:07:05;;;;;;;10.40;2.38;;;3.50;99.90;;;;;;5007321;28;20076;-72
2022/01/05 01:09:31;;;;;;;13.50;2.40;;;3.50;99.90;;;;;;5012745;28;20054;-71
2022/01/05 01:11:56;;;;;;;12.55;2.53;;;3.40;99.90;;;;;;5005437;28;20042;-71
2022/01/05 01:14:22;;;;;;;11.00;2.33;;;3.40;99.90;;;;;;5006797;28;20045;-72
2022/01/05 01:16:47;;;;;;;12.77;2.42;;;3.40;99.90;;;;;;5006840;28;20516;-71
2022/01/05 01:19:13;;;;;;;12.73;2.63;;;3.40;99.90;;;;;;4991777;28;20078;-71
2022/01/05 01:21:39;;;;;;;15.00;2.67;;;3.30;99.90;;;;;;4991651;28;20046;-71
2022/01/05 01:24:05;;;;;;;12.95;2.63;;;3.30;99.90;;;;;;5019510;28;20492;-71
2022/01/05 01:26:31;;;;;;;11.48;2.53;;;3.30;99.90;;;;;;5019219;28;20129;-71
2022/01/05 01:28:57;;;;;;;12.63;2.67;;;3.30;99.90;;;;;;5026640;28;20070;-71
2022/01/05 01:31:24;;;;;;;13.35;3.08;;;3.30;99.90;;;;;;5004312;28;20125;-72
2022/01/05 01:33:50;;;;;;;18.98;3.13;;;3.30;99.90;;;;;;5023825;28;20517;-72
2022/01/05 01:36:16;;;;;;;14.38;2.42;;;3.30;99.90;;;;;;5005904;28;20073;-71
2022/01/05 01:38:42;;;;;;;12.60;3.00;;;3.30;99.90;;;;;;5026316;28;20115;-71
2022/01/05 01:41:09;;;;;;;12.40;2.65;;;3.30;99.90;;;;;;5006245;28;20057;-71
2022/01/05 01:43:35;;;;;;;13.52;2.78;;;3.30;99.90;;;;;;5008351;28;20061;-71
2022/01/05 01:46:00;;;;;;;12.07;3.08;;;3.30;99.90;;;;;;5003764;28;20045;-71
2022/01/05 01:48:26;;;;;;;11.70;1.95;;;3.30;99.90;;;;;;5025784;28;20142;-71
2022/01/05 01:50:52;;;;;;;12.82;2.70;;;3.30;99.90;;;;;;5016250;28;20074;-71
2022/01/05 01:53:18;;;;;;;19.90;3.10;;;3.30;99.90;;;;;;5008114;28;20079;-71
2022/01/05 01:55:43;;;;;;;13.27;2.42;;;3.20;99.90;;;;;;5009266;28;20042;-71
2022/01/05 01:58:09;;;;;;;16.15;3.10;;;3.20;99.90;;;;;;5011018;28;20045;-71
2022/01/05 02:00:35;;;;;;;11.57;2.42;;;3.30;99.90;;;;;;5016985;28;20045;-71
2022/01/05 02:03:01;;;;;;;13.20;3.20;;;3.30;99.90;;;;;;5016803;28;20127;-71
2022/01/05 02:05:27;;;;;;;11.20;2.72;;;3.30;99.90;;;;;;5012204;28;20524;-71
2022/01/05 02:07:52;;;;;;;16.20;2.70;;;3.30;99.90;;;;;;5016952;28;20049;-71
2022/01/05 02:10:18;;;;;;;12.88;2.70;;;3.30;99.90;;;;;;5010697;28;20045;-71
2022/01/05 02:12:44;;;;;;;12.38;2.55;;;3.30;99.90;;;;;;5007758;28;20042;-71
2022/01/05 02:15:11;;;;;;;11.45;2.70;;;3.30;99.90;;;;;;5004125;28;20030;-72
2022/01/05 02:17:48;;;;;;;13.70;2.97;;;3.30;99.90;;;;;;5022213;28;20064;-71
2022/01/05 02:20:14;;;;;;;;;;;3.30;99.90;;;;;;5010737;28;20041;-71
2022/01/05 02:22:40;;;;;;;14.73;2.50;;;3.30;99.90;;;;;;5016285;28;19921;-72
2022/01/05 02:25:06;;;;;;;12.18;2.50;;;3.30;99.90;;;;;;5019617;28;20369;-71
2022/01/05 02:27:32;;;;;;;15.05;3.00;;;3.30;99.90;;;;;;5021116;28;20053;-71
2022/01/05 02:29:57;;;;;;;13.00;2.80;;;3.30;99.90;;;;;;5008724;28;20456;-71
2022/01/05 02:32:23;;;;;;;12.73;3.35;;;3.30;99.90;;;;;;5009611;28;20057;-71
2022/01/05 02:34:49;;;;;;;16.25;3.00;;;3.30;99.90;;;;;;5007159;28;20096;-72
2022/01/05 02:37:15;;;;;;;11.98;2.92;;;3.20;99.90;;;;;;5008031;28;20045;-71
2022/01/05 02:39:41;;;;;;;12.23;2.95;;;3.20;99.90;;;;;;5009359;28;20084;-72
2022/01/05 02:42:07;;;;;;;14.43;2.95;;;3.20;99.90;;;;;;5015284;28;20403;-71
2022/01/05 02:44:32;;;;;;;13.85;2.85;;;3.20;99.90;;;;;;5037199;28;20056;-71
2022/01/05 02:46:58;;;;;;;18.15;2.88;;;3.20;99.90;;;;;;5013192;28;20385;-71
2022/01/05 02:49:23;;;;;;;12.32;3.47;;;3.20;99.90;;;;;;5018789;28;20061;-72
2022/01/05 02:51:49;;;;;;;13.68;3.13;;;3.20;99.90;;;;;;5003515;28;20085;-71
2022/01/05 02:54:15;;;;;;;12.32;3.72;;;3.20;99.90;;;;;;5018725;28;20103;-72
2022/01/05 02:56:40;;;;;;;12.05;2.78;;;3.20;99.90;;;;;;5010082;28;20046;-71
2022/01/05 02:59:06;;;;;;;11.68;2.78;;;3.20;99.90;;;;;;5009312;28;20077;-72
2022/01/05 03:01:33;;;;;;;21.15;3.83;;;3.20;99.90;;;;;;5007947;28;20531;-71
2022/01/05 03:03:59;;;;;;;13.85;2.92;;;3.20;99.90;;;;;;5007390;28;20081;-72
2022/01/05 03:06:25;;;;;;;12.93;2.47;;;3.20;99.90;;;;;;5001597;28;20333;-71
2022/01/05 03:08:51;;;;;;;14.75;2.60;;;3.30;99.90;;;;;;5010083;28;20053;-71
2022/01/05 03:11:16;;;;;;;13.30;2.60;;;3.30;99.90;;;;;;5021150;28;20137;-72
2022/01/05 03:13:43;;;;;;;13.27;2.58;;;3.30;99.90;;;;;;5007964;28;20121;-72
2022/01/05 03:16:09;;;;;;;13.60;2.78;;;3.30;99.90;;;;;;5008798;28;20089;-72
2022/01/05 03:18:34;;;;;;;15.07;3.05;;;3.20;99.90;;;;;;5020606;28;20054;-72
2022/01/05 03:21:00;;;;;;;15.18;3.63;;;3.20;99.90;;;;;;5008071;28;20098;-71
2022/01/05 03:23:25;;;;;;;14.68;2.83;;;3.20;99.90;;;;;;5025743;28;20061;-71
2022/01/05 03:25:51;;;;;;;14.10;3.30;;;3.20;99.90;;;;;;5004884;28;20054;-71
2022/01/05 03:28:16;;;;;;;13.27;3.13;;;3.20;99.90;;;;;;5023456;28;20140;-72
2022/01/05 03:30:42;;;;;;;17.70;3.17;;;3.20;99.90;;;;;;5010270;28;20065;-71
2022/01/05 03:33:10;;;;;;;13.27;2.47;;;3.10;99.90;;;;;;5014392;28;20033;-71
2022/01/05 03:35:40;;;;;;;14.32;3.08;;;3.10;99.90;;;;;;5017109;28;20506;-71
2022/01/05 03:38:06;;;;;;;15.98;3.10;;;3.10;99.90;;;;;;5025769;28;20045;-72
2022/01/05 03:40:34;;;;;;;15.43;3.47;;;3.10;99.90;;;;;;5023819;28;20053;-72
2022/01/05 03:43:00;;;;;;;18.52;3.33;;;3.10;99.90;;;;;;5007239;28;20439;-71
2022/01/05 03:45:26;;;;;;;13.98;2.75;;;3.10;99.90;;;;;;5005811;28;20064;-71
2022/01/05 03:47:52;;;;;;;14.20;2.97;;;3.10;99.90;;;;;;5026200;28;20041;-72
2022/01/05 03:50:17;;;;;;;16.42;2.90;;;3.00;99.90;;;;;;5008074;28;20408;-71
2022/01/05 03:52:43;;;;;;;10.45;3.20;;;3.00;99.90;;;;;;5010282;28;20131;-71
2022/01/05 03:55:09;;;;;;;15.85;3.30;;;3.00;99.90;;;;;;5007281;28;20038;-71
2022/01/05 03:57:34;;;;;;;16.00;2.90;;;3.00;99.90;;;;;;5007575;28;20096;-71
2022/01/05 04:00:00;;;;;;;17.63;3.33;;;3.00;99.90;;;;;;5004534;28;20759;-71
2022/01/05 04:02:26;;;;;;;12.18;2.88;;;3.10;99.90;;;;;;5017153;28;20501;-71
2022/01/05 04:04:52;;;;;;;17.85;3.22;;;3.10;99.90;;;;;;5025504;28;20077;-71
2022/01/05 04:07:18;;;;;;;17.67;3.28;;;3.10;99.90;;;;;;5010785;28;20076;-72
2022/01/05 04:09:44;;;;;;;16.50;2.72;;;3.10;99.90;;;;;;5006938;28;20069;-71
2022/01/05 04:12:10;;;;;;;16.70;2.88;;;3.10;99.90;;;;;;5006654;28;20049;-71
2022/01/05 04:14:36;;;;;;;12.65;3.13;;;3.10;99.90;;;;;;5006359;28;20660;-71
2022/01/05 04:17:02;;;;;;;19.17;3.40;;;3.10;99.90;;;;;;5014034;28;20108;-71
2022/01/05 04:19:27;;;;;;;17.08;3.13;;;3.10;99.90;;;;;;5000259;28;20112;-72
2022/01/05 04:21:53;;;;;;;16.80;3.38;;;3.10;99.90;;;;;;5006294;28;20053;-71
2022/01/05 04:24:18;;;;;;;16.17;3.28;;;3.10;99.90;;;;;;5027137;28;20049;-72
2022/01/05 04:26:44;;;;;;;18.98;3.47;;;3.10;99.90;;;;;;5004793;28;20477;-72
2022/01/05 04:29:10;;;;;;;14.45;3.40;;;3.10;99.90;;;;;;5023520;28;20045;-72
2022/01/05 04:31:36;;;;;;;17.70;3.40;;;3.10;99.90;;;;;;5010469;28;20077;-72
2022/01/05 04:34:02;;;;;;;14.15;3.20;;;3.10;99.90;;;;;;5029048;28;20105;-71
2022/01/05 04:36:28;;;;;;;16.33;3.25;;;3.10;99.90;;;;;;5013491;28;20041;-71
2022/01/05 04:38:54;;;;;;;18.52;3.90;;;3.10;99.90;;;;;;5008959;28;20412;-71
2022/01/05 04:41:19;;;;;;;17.85;3.33;;;3.10;99.90;;;;;;5007559;28;20060;-71
2022/01/05 04:43:45;;;;;;;20.15;3.33;;;3.20;99.90;;;;;;5002409;28;20057;-71
2022/01/05 04:46:11;;;;;;;16.98;3.28;;;3.20;99.90;;;;;;5008428;28;20598;-71
2022/01/05 04:48:36;;;;;;;19.23;3.58;;;3.20;99.90;;;;;;5024412;28;20041;-71
2022/01/05 04:51:03;;;;;;;12.13;3.00;;;3.20;99.90;;;;;;5016295;28;20125;-72
2022/01/05 04:53:28;;;;;;;18.17;3.55;;;3.20;99.90;;;;;;5008798;28;20053;-71
2022/01/05 04:55:54;;;;;;;19.50;4.53;;;3.20;99.90;;;;;;5005131;28;20050;-71
2022/01/05 04:58:20;;;;;;;14.98;3.13;;;3.20;99.90;;;;;;5011507;28;20453;-72
2022/01/05 05:00:46;;;;;;;20.55;3.72;;;3.20;99.90;;;;;;5007287;28;20048;-71
2022/01/05 05:03:12;;;;;;;16.35;4.05;;;3.30;99.90;;;;;;5007250;28;20133;-72
2022/01/05 05:05:38;;;;;;;20.42;3.83;;;3.30;99.90;;;;;;5024135;28;20059;-72
2022/01/05 05:08:04;;;;;;;17.13;3.45;;;3.30;99.90;;;;;;5026635;28;20068;-71
2022/01/05 05:10:29;;;;;;;17.95;3.45;;;3.30;99.90;;;;;;5023663;28;20038;-71
2022/01/05 05:12:55;;;;;;;19.85;3.70;;;3.30;99.90;;;;;;5014826;28;20046;-71
2022/01/05 05:15:21;;;;;;;15.10;3.17;;;3.30;99.90;;;;;;5006727;28;20132;-71
2022/01/05 05:17:46;;;;;;;24.67;4.40;;;3.30;99.90;;;;;;5015336;28;20501;-71
2022/01/05 05:20:12;;;;;;;17.33;3.55;;;3.30;99.90;;;;;;4989925;28;20053;-71
2022/01/05 05:22:38;;;;;;;19.20;3.72;;;3.30;99.90;;;;;;4993021;28;20137;-72
2022/01/05 05:25:04;;;;;;;21.58;4.22;;;3.30;99.90;;;;;;5010840;28;20046;-71
2022/01/05 05:27:30;;;;;;;14.48;3.55;;;3.20;99.90;;;;;;5010377;28;20060;-72
2022/01/05 05:29:56;;;;;;;19.05;4.07;;;3.30;99.90;;;;;;5019471;28;20045;-71
2022/01/05 05:32:21;;;;;;;16.13;3.47;;;3.20;99.90;;;;;;5022471;28;20440;-71
2022/01/05 05:34:47;;;;;;;18.65;3.65;;;3.20;99.90;;;;;;5010342;28;20038;-72
2022/01/05 05:37:15;;;;;;;16.98;3.67;;;3.20;99.90;;;;;;5013622;28;20049;-71
2022/01/05 05:39:41;;;;;;;17.17;4.18;;;3.20;99.90;;;;;;5012726;28;20096;-71
2022/01/05 05:42:07;;;;;;;21.73;3.45;;;3.30;99.90;;;;;;5015042;28;20042;-71
2022/01/05 05:44:33;;;;;;;19.17;4.10;;;3.30;99.90;;;;;;5009939;28;20550;-72
2022/01/05 05:46:59;;;;;;;20.40;4.35;;;3.30;99.90;;;;;;4998958;28;20049;-72
2022/01/05 05:49:25;;;;;;;17.92;3.95;;;3.30;99.90;;;;;;5031962;28;20037;-72
2022/01/05 05:51:50;;;;;;;18.92;3.63;;;3.30;99.90;;;;;;5013993;28;20037;-71
2022/01/05 05:54:16;;;;;;;18.15;4.00;;;3.40;99.90;;;;;;5007742;28;20100;-71
2022/01/05 05:56:42;;;;;;;23.42;5.32;;;3.40;99.90;;;;;;5008216;28;20052;-72
2022/01/05 05:59:07;;;;;;;18.65;3.95;;;3.40;99.90;;;;;;5010268;28;20042;-72
2022/01/05 06:01:33;;;;;;;19.58;3.65;;;3.40;99.90;;;;;;5010805;28;20042;-71
2022/01/05 06:03:58;;;;;;;16.60;3.97;;;3.40;99.90;;;;;;5008406;28;20834;-71
2022/01/05 06:06:24;;;;;;;14.20;4.00;;;3.40;99.90;;;;;;5009721;28;20104;-71
2022/01/05 06:08:50;;;;;;;25.83;3.97;;;3.40;99.90;;;;;;4993400;28;20046;-71
2022/01/05 06:11:15;;;;;;;16.75;4.40;;;3.40;99.90;;;;;;5018134;28;20104;-71
2022/01/05 06:13:41;;;;;;;23.17;4.68;;;3.40;99.90;;;;;;5010726;28;20092;-71
2022/01/05 06:16:07;;;;;;;19.67;4.35;;;3.40;99.90;;;;;;5011744;28;20038;-70
2022/01/05 06:18:32;;;;;;;16.45;3.83;;;3.40;99.90;;;;;;5010651;28;20444;-71
2022/01/05 06:20:58;;;;;;;16.77;4.07;;;3.40;99.90;;;;;;5008515;28;20112;-71
2022/01/05 06:23:23;;;;;;;20.05;4.03;;;3.40;99.90;;;;;;5000879;28;20054;-71
2022/01/05 06:25:49;;;;;;;20.83;4.13;;;3.40;99.90;;;;;;5015081;28;20045;-71
2022/01/05 06:28:15;;;;;;;21.27;4.65;;;3.40;99.90;;;;;;5014754;28;20046;-72
2022/01/05 06:30:41;;;;;;;18.60;4.03;;;3.50;99.90;;;;;;5029477;28;20045;-72
2022/01/05 06:33:07;;;;;;;21.30;4.45;;;3.50;99.90;;;;;;4995368;28;20041;-71
2022/01/05 06:35:34;;;;;;;22.48;4.45;;;3.50;99.90;;;;;;5015847;28;20053;-71
2022/01/05 06:38:00;;;;;;;19.48;4.50;;;3.50;99.90;;;;;;5014076;28;20485;-71
2022/01/05 06:40:26;;;;;;;17.55;3.80;;;3.50;99.90;;;;;;4999376;28;20053;-72
2022/01/05 06:42:51;;;;;;;18.95;4.40;;;3.50;99.90;;;;;;5008795;28;20053;-71
2022/01/05 06:45:17;;;;;;;18.98;4.78;;;3.50;99.90;;;;;;5004840;28;20100;-71
2022/01/05 06:47:43;;;;;;;21.27;5.50;;;3.50;99.90;;;;;;5008530;28;20128;-71
2022/01/05 06:50:09;;;;;;;22.38;4.80;;;3.50;99.90;;;;;;5007831;28;20038;-71
2022/01/05 06:52:36;;;;;;;13.45;3.42;;;3.60;99.90;;;;;;5007281;28;20504;-72
2022/01/05 06:55:02;;;;;;;22.35;4.65;;;3.60;99.90;;;;;;5009128;28;20046;-71
2022/01/05 06:57:27;;;;;;;23.77;5.05;;;3.60;99.90;;;;;;5007829;28;20060;-71
2022/01/05 06:59:53;;;;;;;24.65;4.07;;;3.60;99.90;;;;;;5010279;28;20042;-72
2022/01/05 07:02:18;;;;;;;23.48;4.65;;;3.60;99.90;;;;;;5005623;28;20042;-71
2022/01/05 07:04:44;;;;;;;19.80;4.18;;;3.60;99.90;;;;;;5007431;28;20050;-74
2022/01/05 07:07:10;;;;;;;23.60;4.43;;;3.60;99.90;;;;;;5008857;28;20065;-73
2022/01/05 07:09:35;;;;;;;21.50;4.93;;;3.60;99.90;;;;;;5007408;28;20973;-71
2022/01/05 07:12:01;;;;;;;20.27;4.43;;;3.60;99.90;;;;;;5002738;28;20049;-71
2022/01/05 07:14:27;;;;;;;23.60;4.85;;;3.70;99.90;;;;;;5007722;28;20041;-71
2022/01/05 07:16:53;;;;;;;20.80;4.45;;;3.60;99.90;;;;;;5008816;28;20089;-71
2022/01/05 07:19:20;;;;;;;17.50;4.13;;;3.70;99.90;;;;;;5006766;28;20061;-71
2022/01/05 07:21:49;;;;;;;24.48;5.28;;;3.70;99.90;;;;;;5004650;28;20042;-71
2022/01/05 07:24:17;;;;;;;15.50;4.65;;;3.60;99.90;;;;;;5007620;28;20512;-71
2022/01/05 07:26:44;;;;;;;20.35;4.40;;;3.60;99.90;;;;;;5005561;28;20042;-71
2022/01/05 07:29:11;;;;;;;18.02;4.30;;;3.60;99.90;;;;;;5025530;28;20050;-72
2022/01/05 07:31:36;;;;;;;21.38;4.88;;;3.50;99.90;;;;;;5007543;28;20045;-72
2022/01/05 07:34:02;;;;;;;16.63;4.57;;;3.50;99.90;;;;;;5006387;28;20053;-71
2022/01/05 07:36:27;;;;;;;16.83;4.28;;;3.50;99.90;;;;;;5006958;28;20052;-71
2022/01/05 07:38:53;;;;;;;11.82;3.72;;;3.40;99.90;;;;;;5005184;28;20630;-71
2022/01/05 07:41:19;;;;;;;15.63;4.35;;;3.40;99.90;;;;;;5006753;28;20042;-71
2022/01/05 07:43:44;;;;;;;17.20;3.78;;;3.40;99.90;;;;;;5010246;28;20056;-72
2022/01/05 07:46:10;;;;;;;9.93;3.17;;;3.40;99.90;;;;;;5012441;28;20052;-71
2022/01/05 07:48:36;;;;;;;8.15;3.10;;;3.30;99.90;;;;;;4994702;28;20054;-72
2022/01/05 07:51:01;;;;;;;11.80;3.47;;;3.20;99.90;;;;;;4995232;28;20103;-72
2022/01/05 07:53:27;;;;;;;10.15;3.10;;;3.10;99.90;;;;;;5002798;28;20412;-71
2022/01/05 07:55:53;;;;;;;11.70;3.53;;;3.00;99.90;;;;;;4997561;28;20038;-71
2022/01/05 07:58:20;;;;;;;14.00;3.58;;;2.90;99.90;;;;;;5000799;28;20447;-72
2022/01/05 08:00:45;;;;;;;10.93;3.72;;;2.90;99.90;;;;;;5039353;28;20137;-71
2022/01/05 08:03:11;;;;;;;11.05;4.43;;;2.80;99.90;;;;;;5008440;28;20133;-71
2022/01/05 08:05:36;;;;;;;11.60;4.65;;;2.80;99.90;;;;;;5008278;28;20042;-72
2022/01/05 08:08:02;;;;;;;12.48;3.67;;;2.90;99.90;;;;;;5004524;28;20045;-72
2022/01/05 08:10:28;;;;;;;11.10;3.70;;;2.80;99.90;;;;;;5008339;28;20037;-71
2022/01/05 08:12:53;;;;;;;9.48;3.83;;;2.80;99.90;;;;;;5021155;28;20053;-72
2022/01/05 08:15:19;;;;;;;11.43;3.92;;;2.70;99.90;;;;;;5026827;28;20037;-72
2022/01/05 08:17:45;;;;;;;8.75;4.10;;;2.70;99.90;;;;;;5004633;28;20050;-71
2022/01/05 08:20:11;;;;;;;9.35;4.28;;;2.70;99.90;;;;;;5017986;28;20100;-71
2022/01/05 08:22:42;;;;;;;9.33;4.30;;;2.70;99.90;;;;;;5005853;28;20037;-71
2022/01/05 08:25:12;;;;;;;10.48;4.38;;;2.70;99.90;;;;;;5011426;28;20288;-72
2022/01/05 08:27:46;;;;;;;13.77;4.53;;;2.80;99.90;;;;;;5005664;28;20069;-71
2022/01/05 08:30:34;;;;;;;8.27;3.60;;;2.80;99.90;;;;;;5006116;28;20396;-72
2022/01/05 08:33:01;;;;;;;12.48;5.03;;;2.80;99.90;;;;;;5005666;28;20074;-71
2022/01/05 08:35:27;;;;;;;15.27;5.20;;;2.80;99.90;;;;;;4995411;28;20124;-71
2022/01/05 08:37:53;;;;;;;13.70;5.45;;;2.90;99.90;;;;;;5006656;28;20112;-71
2022/01/05 08:40:21;;;;;;;15.82;6.05;;;2.90;99.90;;;;;;5004903;28;20053;-71
2022/01/05 08:42:48;;;;;;;15.48;6.10;;;3.00;99.90;;;;;;5003977;28;20062;-73
2022/01/05 08:45:15;;;;;;;17.00;6.73;;;3.00;99.90;;;;;;5007734;28;20462;-73
2022/01/05 08:47:47;;;;;;;18.52;6.40;;;3.10;99.90;;;;;;5005400;28;20046;-71
2022/01/05 08:50:13;;;;;;;18.95;6.82;;;3.20;99.90;;;;;;5007037;28;20576;-71
2022/01/05 08:52:38;;;;;;;21.02;5.72;;;3.30;99.90;;;;;;5008699;28;20060;-71
2022/01/05 08:55:04;;;;;;;21.08;5.18;;;3.50;99.90;;;;;;5007796;28;20038;-71
2022/01/05 08:57:30;;;;;;;19.90;3.47;;;3.60;99.90;;;;;;5008773;28;20400;-72
2022/01/05 08:59:56;;;;;;;17.25;2.90;;;3.80;99.90;;;;;;5010739;28;20048;-71
2022/01/05 09:02:21;;;;;;;14.05;2.40;;;3.90;99.90;;;;;;5024132;28;20049;-71
2022/01/05 09:04:51;;;;;;;7.90;1.80;;;4.00;99.90;;;;;;5010030;28;20128;-71
2022/01/05 09:07:17;;;;;;;8.70;2.00;;;4.10;99.90;;;;;;5011587;28;20056;-71
2022/01/05 09:09:42;;;;;;;10.77;2.10;;;4.20;99.90;;;;;;5009145;28;20042;-72
2022/01/05 09:12:09;;;;;;;13.40;2.58;;;4.30;99.90;;;;;;5012471;28;20049;-72
2022/01/05 09:14:35;;;;;;;12.10;2.23;;;4.30;99.90;;;;;;5018200;28;20084;-71
2022/01/05 09:17:00;;;;;;;13.70;3.72;;;4.40;99.90;;;;;;5016940;28;20057;-72
2022/01/05 09:19:28;;;;;;;14.90;2.65;;;4.50;99.90;;;;;;5010926;28;20077;-74
2022/01/05 09:21:54;;;;;;;14.65;2.40;;;4.50;99.90;;;;;;5012966;28;20061;-71
2022/01/05 09:24:19;;;;;;;17.05;2.75;;;4.60;99.90;;;;;;5010050;28;20489;-71
2022/01/05 09:26:45;;;;;;;14.95;2.72;;;4.60;99.90;;;;;;5010539;28;20389;-70
2022/01/05 09:29:11;;;;;;;13.40;2.30;;;4.70;99.90;;;;;;5009882;28;20057;-73
2022/01/05 09:31:37;;;;;;;16.85;3.28;;;4.70;99.90;;;;;;5007710;28;20113;-70
2022/01/05 09:34:03;;;;;;;12.65;2.40;;;4.80;99.90;;;;;;5010771;28;20443;-71
2022/01/05 09:36:33;;;;;;;16.58;3.10;;;4.80;99.90;;;;;;5010442;28;20049;-70
2022/01/05 09:42:00;;;;;;;13.10;2.58;;;5.00;99.90;;;;;;5008444;28;20046;-70
2022/01/05 09:44:43;;;;;;;12.38;2.33;;;5.10;99.90;;;;;;5007779;28;20050;-70
2022/01/05 09:47:11;;;;;;;13.73;2.67;;;5.20;99.90;;;;;;5010935;28;20117;-70
2022/01/05 09:49:54;;;;;;;13.48;2.08;;;5.20;99.90;;;;;;5008932;28;20049;-70
2022/01/05 09:52:22;;;;;;;12.00;2.22;;;5.20;99.90;;;;;;5005111;28;20503;-70
2022/01/05 09:54:48;;;;;;;14.25;2.63;;;5.20;99.90;;;;;;5008281;28;20119;-70
2022/01/05 09:57:19;;;;;;;17.83;3.53;;;5.20;99.90;;;;;;5010715;28;20046;-71
2022/01/05 09:59:47;;;;;;;14.38;2.28;;;5.20;99.90;;;;;;5009608;28;20037;-71
2022/01/05 10:02:14;;;;;;;13.82;3.13;;;5.30;99.90;;;;;;5010179;28;20049;-71
2022/01/05 10:04:40;;;;;;;17.08;3.80;;;5.20;99.90;;;;;;5017570;28;20095;-70
2022/01/05 10:07:08;;;;;;;18.70;3.53;;;5.30;99.90;;;;;;5010178;28;20400;-69
2022/01/05 10:09:40;;;;;;;18.02;3.28;;;5.30;99.90;;;;;;5010303;28;20054;-70
2022/01/05 10:12:07;;;;;;;19.00;3.00;;;5.30;99.90;;;;;;5028561;28;20034;-70
2022/01/05 10:14:33;;;;;;;21.95;3.45;;;5.40;99.90;;;;;;5010162;28;20374;-70
2022/01/05 10:17:03;;;;;;;17.48;2.97;;;5.40;99.90;;;;;;5009915;28;20061;-70
2022/01/05 10:19:28;;;;;;;18.88;3.65;;;5.40;99.90;;;;;;5009999;28;20771;-71
2022/01/05 10:21:56;;;;;;;23.15;3.40;;;5.40;99.90;;;;;;5010799;28;20038;-70
2022/01/05 10:24:42;;;;;;;20.58;3.28;;;5.50;99.90;;;;;;5010264;28;20053;-70
2022/01/05 10:27:08;;;;;;;17.02;3.13;;;5.50;99.90;;;;;;5009156;28;20045;-69
2022/01/05 10:29:33;;;;;;;20.10;3.10;;;5.50;99.90;;;;;;5009343;28;20054;-70
2022/01/05 10:32:01;;;;;;;23.33;3.65;;;5.50;99.90;;;;;;5011360;28;20049;-69
2022/01/05 10:34:28;;;;;;;;;;;5.60;99.90;;;;;;5009143;28;20113;-70
2022/01/05 10:37:00;;;;;;;22.20;4.57;;;5.60;99.90;;;;;;5009656;28;19925;-70
2022/01/05 10:39:31;;;;;;;26.05;3.97;;;5.60;99.90;;;;;;5008850;28;20401;-70
2022/01/05 10:42:07;;;;;;;27.67;4.32;;;5.60;99.90;;;;;;5010421;28;20061;-70
2022/01/05 10:44:33;;;;;;;23.23;3.90;;;5.70;99.90;;;;;;5010909;28;20052;-70
2022/01/05 10:47:00;;;;;;;27.00;4.25;;;5.70;99.90;;;;;;5009858;28;20058;-69
2022/01/05 10:49:38;;;;;;;25.98;4.22;;;5.80;99.90;;;;;;5025943;28;20053;-70
2022/01/05 10:52:30;;;;;;;29.23;4.57;;;5.80;99.90;;;;;;5010551;28;20121;-70
2022/01/05 10:55:10;;;;;;;31.33;4.32;;;5.90;99.90;;;;;;5008662;28;20081;-69
2022/01/05 10:57:35;;;;;;;23.05;4.45;;;5.90;99.90;;;;;;5010162;28;20194;-70
2022/01/05 11:00:02;;;;;;;28.63;4.57;;;6.00;99.90;;;;;;5009919;28;20050;-69
2022/01/05 11:02:31;;;;;;;24.13;4.80;;;6.00;99.90;;;;;;5009969;28;20099;-69
2022/01/05 11:05:05;;;;;;;25.13;3.92;;;6.10;99.90;;;;;;5009227;28;20038;-69
2022/01/05 11:07:31;;;;;;;27.00;4.75;;;6.10;99.90;;;;;;5008343;28;20865;-69
2022/01/05 11:10:01;;;;;;;22.77;4.18;;;6.10;99.90;;;;;;5009378;28;20046;-71
2022/01/05 11:12:40;;;;;;;24.85;4.13;;;6.20;99.90;;;;;;5010264;28;20058;-71
2022/01/05 11:15:24;;;;;;;22.85;3.65;;;6.20;99.90;;;;;;5009328;28;20060;-70
2022/01/05 11:18:19;;;;;;;29.25;4.47;;;6.20;99.90;;;;;;5002854;28;20046;-71
2022/01/05 11:21:07;;;;;;;27.35;3.90;;;6.30;99.90;;;;;;5008305;28;20100;-70
2022/01/05 11:23:33;;;;;;;24.08;3.80;;;6.30;99.90;;;;;;5009214;28;20048;-70
2022/01/05 11:26:01;;;;;;;22.47;3.97;;;6.30;99.90;;;;;;5009472;28;20048;-70
2022/01/05 11:28:28;;;;;;;21.33;4.00;;;6.40;99.90;;;;;;5009095;28;20703;-72
2022/01/05 11:30:56;;;;;;;;;;;6.40;99.90;;;;;;5007454;28;20050;-72
2022/01/05 11:33:22;;;;;;;20.38;3.60;;;6.50;99.90;;;;;;5007589;28;19964;-71
2022/01/05 11:35:48;;;;;;;28.60;3.85;;;6.50;99.90;;;;;;5008046;28;20422;-72
2022/01/05 11:38:14;;;;;;;20.88;4.38;;;6.60;99.90;;;;;;5009505;28;20072;-72
2022/01/05 11:40:47;;;;;;;22.95;3.50;;;6.60;99.90;;;;;;5007837;28;20034;-71
2022/01/05 11:43:40;;;;;;;27.50;3.45;;;6.60;99.90;;;;;;5007508;28;20056;-71
2022/01/05 11:46:19;;;;;;;24.15;4.32;;;6.60;99.90;;;;;;4986960;28;20054;-72
2022/01/05 11:49:03;;;;;;;20.90;3.55;;;6.60;99.90;;;;;;4996121;28;20068;-70
2022/01/05 11:51:48;;;;;;;20.42;3.10;;;6.60;99.90;;;;;;5005686;28;20053;-71
2022/01/05 11:54:30;;;;;;;23.10;3.85;;;6.60;99.90;;;;;;5009025;28;20042;-70
2022/01/05 11:57:07;;;;;;;20.00;3.75;;;6.70;99.90;;;;;;5009299;28;20085;-70
2022/01/05 11:59:38;;;;;;;22.27;3.50;;;6.80;99.90;;;;;;5007086;28;20049;-70
2022/01/05 12:02:13;;;;;;;19.10;3.40;;;6.80;99.90;;;;;;5007099;28;20041;-71
2022/01/05 12:05:08;;;;;;;17.67;3.30;;;6.90;99.90;;;;;;5006945;28;20552;-71
2022/01/05 12:07:43;;;;;;;17.45;3.42;;;6.90;99.90;;;;;;4989348;28;20563;-71
2022/01/05 12:10:21;;;;;;;17.77;3.22;;;7.00;99.90;;;;;;5007941;28;20057;-70
2022/01/05 12:13:02;;;;;;;18.80;3.17;;;7.00;99.90;;;;;;5018952;28;20041;-70
2022/01/05 12:15:56;;;;;;;18.25;3.33;;;7.00;99.90;;;;;;5009343;28;20056;-70
2022/01/05 12:18:28;;;;;;;16.85;2.88;;;7.00;99.90;;;;;;5021519;28;20080;-69
2022/01/05 12:20:54;;;;;;;18.45;3.33;;;7.10;99.90;;;;;;5007260;28;20107;-70
2022/01/05 12:23:31;;;;;;;14.80;3.03;;;7.10;99.90;;;;;;5008524;28;20096;-70
2022/01/05 12:26:02;;;;;;;18.58;3.53;;;7.10;99.90;;;;;;5006694;28;20087;-71
2022/01/05 12:28:52;;;;;;;12.10;2.67;;;7.10;99.90;;;;;;5005919;28;20137;-70
2022/01/05 12:31:18;;;;;;;15.27;2.38;;;7.10;99.90;;;;;;5008869;28;20085;-70
2022/01/05 12:33:54;;;;;;;14.63;2.55;;;7.10;99.90;;;;;;5021864;28;20048;-70
2022/01/05 12:36:38;;;;;;;15.18;3.03;;;7.00;99.90;;;;;;5006681;28;20625;-71
2022/01/05 12:39:08;;;;;;;18.38;3.28;;;6.90;99.90;;;;;;5005744;28;20049;-70
2022/01/05 12:41:38;;;;;;;18.85;2.67;;;6.90;99.90;;;;;;5007502;28;20054;-70
2022/01/05 12:44:16;;;;;;;12.88;2.53;;;6.90;99.90;;;;;;5006626;28;20046;-70
2022/01/05 12:46:48;;;;;;;13.50;2.25;;;6.90;99.90;;;;;;5008277;28;20054;-71
2022/01/05 12:49:16;;;;;;;9.23;2.03;;;7.00;99.90;;;;;;5003625;28;20058;-70
2022/01/05 12:52:14;;;;;;;10.70;2.00;;;7.00;99.90;;;;;;4991048;28;20064;-70
2022/01/05 12:54:47;;;;;;;14.02;2.58;;;7.10;99.90;;;;;;4999591;28;20058;-71